createdAt,value
2018-10-21T00:02:16.277Z,8.57
2018-10-21T00:04:44.591Z,11.73
2018-10-21T00:07:12.737Z,9.90
2018-10-21T00:09:40.839Z,10.72
2018-10-21T00:12:08.938Z,10.70
2018-10-21T00:14:37.030Z,12.20
2018-10-21T00:17:05.258Z,9.53
2018-10-21T00:19:33.343Z,9.30
2018-10-21T00:22:01.492Z,9.33
2018-10-21T00:24:29.579Z,9.00
2018-10-21T00:26:57.793Z,9.67
2018-10-21T00:29:25.849Z,9.43
2018-10-21T00:31:53.929Z,10.10
2018-10-21T00:34:22.057Z,6.80
2018-10-21T00:36:50.155Z,8.97
2018-10-21T00:39:18.250Z,7.60
2018-10-21T00:41:46.344Z,8.83
2018-10-21T00:44:14.406Z,9.23
2018-10-21T00:46:42.480Z,8.00
2018-10-21T00:49:10.589Z,8.63
2018-10-21T00:51:38.838Z,9.47
2018-10-21T00:54:12.260Z,9.47
2018-10-21T00:56:40.365Z,9.27
2018-10-21T00:59:09.474Z,11.53
2018-10-21T01:01:37.614Z,7.93
2018-10-21T01:04:05.945Z,8.37
2018-10-21T01:06:34.292Z,9.70
2018-10-21T01:09:02.652Z,10.90
2018-10-21T01:11:30.671Z,11.93
2018-10-21T01:13:58.743Z,8.57
2018-10-21T01:16:26.840Z,10.37
2018-10-21T01:18:54.978Z,10.17
2018-10-21T01:21:23.071Z,9.13
2018-10-21T01:23:51.168Z,9.37
2018-10-21T01:26:19.256Z,10.40
2018-10-21T01:28:47.355Z,10.10
2018-10-21T01:31:15.428Z,10.23
2018-10-21T01:33:43.558Z,9.33
2018-10-21T01:36:11.730Z,9.83
2018-10-21T01:38:39.743Z,11.07
2018-10-21T01:41:07.927Z,11.70
2018-10-21T01:43:36.038Z,10.27
2018-10-21T01:46:04.117Z,10.67
2018-10-21T01:48:32.863Z,12.37
2018-10-21T01:51:01.022Z,9.37
2018-10-21T01:53:29.097Z,9.17
2018-10-21T01:55:57.215Z,9.17
2018-10-21T01:58:25.343Z,12.93
2018-10-21T02:00:53.451Z,10.37
2018-10-21T02:03:21.548Z,11.83
2018-10-21T02:05:49.658Z,13.27
2018-10-21T02:08:17.788Z,13.53
2018-10-21T02:10:45.912Z,12.80
2018-10-21T02:13:14.042Z,16.73
2018-10-21T02:15:42.136Z,14.73
2018-10-21T02:18:10.239Z,15.03
2018-10-21T02:20:38.393Z,15.10
2018-10-21T02:23:06.492Z,17.93
2018-10-21T02:25:34.575Z,17.87
2018-10-21T02:28:02.712Z,15.63
2018-10-21T02:30:31.403Z,15.93
2018-10-21T02:33:00.255Z,15.93
2018-10-21T02:35:28.257Z,17.20
2018-10-21T02:37:57.009Z,15.70
2018-10-21T02:41:36.307Z,16.53
2018-10-21T02:44:05.182Z,15.47
2018-10-21T02:46:33.767Z,15.17
2018-10-21T02:49:02.727Z,19.87
2018-10-21T02:51:30.838Z,16.20
2018-10-21T02:53:58.921Z,15.50
2018-10-21T02:56:27.030Z,16.27
2018-10-21T02:58:55.130Z,15.67
2018-10-21T03:01:23.222Z,17.57
2018-10-21T03:03:51.322Z,15.33
2018-10-21T03:06:19.532Z,17.53
2018-10-21T03:08:47.663Z,19.03
2018-10-21T03:11:15.858Z,19.97
2018-10-21T03:13:43.906Z,16.53
2018-10-21T03:16:12.017Z,14.93
2018-10-21T03:18:40.135Z,26.57
2018-10-21T03:21:08.309Z,18.73
2018-10-21T03:23:36.579Z,17.80
2018-10-21T03:26:04.820Z,21.63
2018-10-21T03:28:33.329Z,19.57
2018-10-21T03:31:01.660Z,22.13
2018-10-21T03:33:29.917Z,18.70
2018-10-21T03:35:57.975Z,18.77
2018-10-21T03:38:26.315Z,20.60
2018-10-21T03:40:54.478Z,19.40
2018-10-21T03:43:22.595Z,20.43
2018-10-21T03:45:50.686Z,18.40
2018-10-21T03:48:18.800Z,23.57
2018-10-21T03:50:46.893Z,20.63
2018-10-21T03:53:15.003Z,20.83
2018-10-21T03:55:43.576Z,18.30
2018-10-21T03:58:11.723Z,16.23
2018-10-21T04:00:39.973Z,19.70
2018-10-21T04:03:08.497Z,16.67
2018-10-21T04:05:36.872Z,19.73
2018-10-21T04:08:05.062Z,19.20
2018-10-21T04:10:33.414Z,19.10
2018-10-21T04:13:01.532Z,21.43
2018-10-21T04:15:29.604Z,19.93
2018-10-21T04:17:57.716Z,20.60
2018-10-21T04:20:25.842Z,18.40
2018-10-21T04:22:56.607Z,20.60
2018-10-21T04:25:25.685Z,19.10
2018-10-21T04:27:54.634Z,18.20
2018-10-21T04:30:25.889Z,17.87
2018-10-21T04:32:56.611Z,16.20
2018-10-21T04:35:25.034Z,19.57
2018-10-21T04:40:11.873Z,17.67
2018-10-21T04:42:39.919Z,13.13
2018-10-21T04:45:08.558Z,14.00
2018-10-21T04:47:36.675Z,17.43
2018-10-21T04:50:05.261Z,17.40
2018-10-21T04:52:33.827Z,14.50
2018-10-21T04:55:06.405Z,18.43
2018-10-21T04:57:35.293Z,20.70
2018-10-21T05:00:03.603Z,20.73
2018-10-21T05:02:32.233Z,20.33
2018-10-21T05:05:00.542Z,18.10
2018-10-21T05:07:28.679Z,15.13
2018-10-21T05:09:56.778Z,18.60
2018-10-21T05:12:24.847Z,20.67
2018-10-21T05:14:52.947Z,20.90
2018-10-21T05:17:21.044Z,18.37
2018-10-21T05:19:49.151Z,17.63
2018-10-21T05:22:17.400Z,20.80
2018-10-21T05:24:45.381Z,16.10
2018-10-21T05:27:13.466Z,16.20
2018-10-21T05:29:41.579Z,16.80
2018-10-21T05:32:09.723Z,18.87
2018-10-21T05:34:38.405Z,17.33
2018-10-21T05:37:06.782Z,15.47
2018-10-21T05:39:34.884Z,19.53
2018-10-21T05:42:03.011Z,16.20
2018-10-21T05:44:31.095Z,20.83
2018-10-21T05:46:59.228Z,15.73
2018-10-21T05:49:27.270Z,18.37
2018-10-21T05:51:55.397Z,15.93
2018-10-21T05:54:23.449Z,25.30
2018-10-21T05:56:51.862Z,19.67
2018-10-21T05:59:19.957Z,20.10
2018-10-21T06:01:48.515Z,20.57
2018-10-21T06:04:17.544Z,26.73
2018-10-21T06:06:45.552Z,21.03
2018-10-21T06:09:14.479Z,24.40
2018-10-21T06:11:42.569Z,20.00
2018-10-21T06:14:10.671Z,25.00
2018-10-21T06:16:43.966Z,24.47
2018-10-21T06:19:12.970Z,24.30
2018-10-21T06:21:42.418Z,20.73
2018-10-21T06:24:10.490Z,18.80
2018-10-21T06:26:38.569Z,20.20
2018-10-21T06:29:06.650Z,21.87
2018-10-21T06:31:34.755Z,21.90
2018-10-21T06:34:02.824Z,20.20
2018-10-21T06:36:30.955Z,20.93
2018-10-21T06:38:59.037Z,22.77
2018-10-21T06:41:27.071Z,19.80
2018-10-21T06:43:55.244Z,21.60
2018-10-21T06:46:23.303Z,24.27
2018-10-21T06:48:51.407Z,27.53
2018-10-21T06:51:19.503Z,20.27
2018-10-21T06:53:47.579Z,20.80
2018-10-21T06:56:15.690Z,21.27
2018-10-21T06:58:43.743Z,24.23
2018-10-21T07:01:12.022Z,25.67
2018-10-21T07:03:40.114Z,18.80
2018-10-21T07:06:11.511Z,23.73
2018-10-21T07:08:39.598Z,23.57
2018-10-21T07:11:07.761Z,20.13
2018-10-21T07:13:36.171Z,27.37
2018-10-21T07:16:04.755Z,22.20
2018-10-21T07:18:32.894Z,20.20
2018-10-21T07:21:01.062Z,22.57
2018-10-21T07:23:29.147Z,25.43
2018-10-21T07:25:57.254Z,23.00
2018-10-21T07:28:25.534Z,19.47
2018-10-21T07:30:53.555Z,23.10
2018-10-21T07:33:21.672Z,27.93
2018-10-21T07:35:49.781Z,25.57
2018-10-21T07:38:17.863Z,20.80
2018-10-21T07:40:46.075Z,22.97
2018-10-21T07:43:14.188Z,21.53
2018-10-21T07:45:42.319Z,23.47
2018-10-21T07:48:10.400Z,25.07
2018-10-21T07:50:38.541Z,29.57
2018-10-21T07:53:06.621Z,22.23
2018-10-21T07:55:34.794Z,29.47
2018-10-21T07:58:02.873Z,25.90
2018-10-21T08:00:30.942Z,27.63
2018-10-21T08:02:59.006Z,26.80
2018-10-21T08:05:38.578Z,24.20
2018-10-21T08:08:12.187Z,27.63
2018-10-21T08:10:40.453Z,28.23
2018-10-21T08:13:09.746Z,25.87
2018-10-21T08:15:37.848Z,29.53
2018-10-21T08:18:06.503Z,30.93
2018-10-21T08:20:34.691Z,22.00
2018-10-21T08:23:02.807Z,27.87
2018-10-21T08:25:31.026Z,22.90
2018-10-21T08:27:59.126Z,22.90
2018-10-21T08:30:27.223Z,22.47
2018-10-21T08:32:55.325Z,25.17
2018-10-21T08:35:23.492Z,26.17
2018-10-21T08:37:52.025Z,26.27
2018-10-21T08:40:20.136Z,23.50
2018-10-21T08:42:48.244Z,25.70
2018-10-21T08:45:16.332Z,26.73
2018-10-21T08:47:44.493Z,27.53
2018-10-21T08:50:13.495Z,24.50
2018-10-21T08:52:41.802Z,26.57
2018-10-21T08:55:11.086Z,21.73
2018-10-21T08:57:39.259Z,25.17
2018-10-21T09:00:09.857Z,26.33
2018-10-21T09:02:48.551Z,35.13
2018-10-21T09:05:18.072Z,24.50
2018-10-21T09:07:46.487Z,18.53
2018-10-21T09:10:15.674Z,22.80
2018-10-21T09:12:43.711Z,25.90
2018-10-21T09:15:13.948Z,22.17
2018-10-21T09:17:42.065Z,24.70
2018-10-21T09:20:13.161Z,24.20
2018-10-21T09:22:41.255Z,27.53
2018-10-21T09:25:10.330Z,23.53
2018-10-21T09:27:39.083Z,25.30
2018-10-21T09:30:08.648Z,25.70
2018-10-21T09:32:37.630Z,26.73
2018-10-21T09:35:07.023Z,27.80
2018-10-21T09:37:35.120Z,22.83
2018-10-21T09:40:03.626Z,24.27
2018-10-21T09:42:31.633Z,26.43
2018-10-21T09:44:59.744Z,25.30
2018-10-21T09:47:27.864Z,21.13
2018-10-21T09:49:56.011Z,25.70
2018-10-21T09:52:24.059Z,30.13
2018-10-21T09:54:52.352Z,26.33
2018-10-21T09:57:20.511Z,23.23
2018-10-21T09:59:48.615Z,23.93
2018-10-21T10:02:22.063Z,26.27
2018-10-21T10:04:50.205Z,27.43
2018-10-21T10:07:18.430Z,25.43
2018-10-21T10:09:46.420Z,25.77
2018-10-21T10:12:14.560Z,23.97
2018-10-21T10:14:42.735Z,28.40
2018-10-21T10:17:10.863Z,22.70
2018-10-21T10:19:38.972Z,26.13
2018-10-21T10:22:07.099Z,24.67
2018-10-21T10:24:35.422Z,31.13
2018-10-21T10:27:03.672Z,22.97
2018-10-21T10:29:31.770Z,23.93
2018-10-21T10:31:59.843Z,24.37
2018-10-21T10:34:27.941Z,26.67
2018-10-21T10:36:56.042Z,22.67
2018-10-21T10:39:24.140Z,25.37
2018-10-21T10:41:52.296Z,23.97
2018-10-21T10:44:20.342Z,23.87
2018-10-21T10:46:48.427Z,24.00
2018-10-21T10:49:16.628Z,32.75
2018-10-21T10:51:44.606Z,25.83
2018-10-21T10:54:12.744Z,24.63
2018-10-21T10:56:40.959Z,25.23
2018-10-21T10:59:09.045Z,22.53
2018-10-21T11:01:37.127Z,23.57
2018-10-21T11:04:05.257Z,23.23
2018-10-21T11:06:33.291Z,23.80
2018-10-21T11:09:01.379Z,23.63
2018-10-21T11:11:29.483Z,23.10
2018-10-21T11:13:57.584Z,25.37
2018-10-21T11:16:25.667Z,27.77
2018-10-21T11:18:53.803Z,28.40
2018-10-21T11:21:21.832Z,22.23
2018-10-21T11:23:49.906Z,20.93
2018-10-21T11:26:17.998Z,21.67
2018-10-21T11:28:46.969Z,23.00
2018-10-21T11:31:15.053Z,20.57
2018-10-21T11:33:43.118Z,23.67
2018-10-21T11:36:11.213Z,20.73
2018-10-21T11:38:39.297Z,27.00
2018-10-21T11:41:07.505Z,24.27
2018-10-21T11:43:35.551Z,26.17
2018-10-21T11:46:03.697Z,23.43
2018-10-21T11:48:31.761Z,21.03
2018-10-21T11:50:59.867Z,23.93
2018-10-21T11:53:27.956Z,21.70
2018-10-21T11:55:56.026Z,23.47
2018-10-21T11:58:24.114Z,22.03
2018-10-21T12:00:52.211Z,21.67
2018-10-21T12:03:20.318Z,25.67
2018-10-21T12:05:48.392Z,22.40
2018-10-21T12:08:16.494Z,26.90
2018-10-21T12:10:44.583Z,25.10
2018-10-21T12:13:12.710Z,21.33
2018-10-21T12:15:41.306Z,22.30
2018-10-21T12:18:09.496Z,19.00
2018-10-21T12:20:38.354Z,21.53
2018-10-21T12:23:06.599Z,22.50
2018-10-21T12:25:34.591Z,22.27
2018-10-21T12:28:02.679Z,19.20
2018-10-21T12:30:30.791Z,15.57
2018-10-21T12:32:58.818Z,19.23
2018-10-21T12:35:26.891Z,20.93
2018-10-21T12:37:54.962Z,19.70
2018-10-21T12:40:23.052Z,19.63
2018-10-21T12:42:51.139Z,18.20
2018-10-21T12:45:19.276Z,22.13
2018-10-21T12:47:47.318Z,15.10
2018-10-21T12:50:15.421Z,20.27
2018-10-21T12:55:16.491Z,18.67
2018-10-21T12:57:44.551Z,17.10
2018-10-21T13:00:12.711Z,16.47
2018-10-21T13:02:40.828Z,13.55
2018-10-21T13:05:08.936Z,15.33
2018-10-21T13:07:37.005Z,15.10
2018-10-21T13:10:05.921Z,16.42
2018-10-21T13:12:34.259Z,14.47
2018-10-21T13:15:02.443Z,17.17
2018-10-21T13:17:30.520Z,20.17
2018-10-21T13:19:58.615Z,14.87
2018-10-21T13:22:26.720Z,15.88
2018-10-21T13:24:54.863Z,12.60
2018-10-21T13:27:22.911Z,14.63
2018-10-21T13:29:51.025Z,14.85
2018-10-21T13:32:19.110Z,15.78
2018-10-21T13:34:47.283Z,12.98
2018-10-21T13:37:15.389Z,15.85
2018-10-21T13:39:43.415Z,12.00
2018-10-21T13:42:11.542Z,12.68
2018-10-21T13:44:39.604Z,14.23
2018-10-21T13:47:07.711Z,14.00
2018-10-21T13:49:35.850Z,15.18
2018-10-21T13:52:04.083Z,14.87
2018-10-21T13:54:32.067Z,17.57
2018-10-21T13:57:00.168Z,15.08
2018-10-21T13:59:28.279Z,15.70
2018-10-21T14:01:56.434Z,20.70
2018-10-21T14:04:24.518Z,18.12
2018-10-21T14:06:52.670Z,15.43
2018-10-21T14:09:20.697Z,14.83
2018-10-21T14:11:48.817Z,15.60
2018-10-21T14:14:17.388Z,15.00
2018-10-21T14:16:45.652Z,16.12
2018-10-21T14:19:13.690Z,17.12
2018-10-21T14:21:41.824Z,16.85
2018-10-21T14:24:09.949Z,14.93
2018-10-21T14:26:38.003Z,16.55
2018-10-21T14:29:06.139Z,17.77
2018-10-21T14:31:34.238Z,18.55
2018-10-21T14:34:02.338Z,17.30
2018-10-21T14:36:30.425Z,16.20
2018-10-21T14:38:58.553Z,16.87
2018-10-21T14:41:26.667Z,22.25
2018-10-21T14:43:54.771Z,19.20
2018-10-21T14:46:22.868Z,18.70
2018-10-21T14:48:50.958Z,21.10
2018-10-21T14:51:20.053Z,20.88
2018-10-21T14:53:48.123Z,23.00
2018-10-21T14:56:16.272Z,19.80
2018-10-21T14:58:44.413Z,24.90
2018-10-21T15:01:13.251Z,28.32
2018-10-21T15:03:45.164Z,21.63
2018-10-21T15:06:13.282Z,18.48
2018-10-21T15:08:41.345Z,19.27
2018-10-21T15:11:09.487Z,19.95
2018-10-21T15:13:37.622Z,21.97
2018-10-21T15:16:05.769Z,21.40
2018-10-21T15:18:33.871Z,25.50
2018-10-21T15:21:02.079Z,22.73
2018-10-21T15:23:30.322Z,21.60
2018-10-21T15:25:58.347Z,21.33
2018-10-21T15:28:26.383Z,23.18
2018-10-21T15:30:54.484Z,22.48
2018-10-21T15:33:22.562Z,19.90
2018-10-21T15:35:50.651Z,23.90
2018-10-21T15:38:18.816Z,30.63
2018-10-21T15:40:46.884Z,23.33
2018-10-21T15:43:14.974Z,24.00
2018-10-21T15:45:43.162Z,25.80
2018-10-21T15:48:11.229Z,27.93
2018-10-21T15:50:39.321Z,24.67
2018-10-21T15:53:07.403Z,30.40
2018-10-21T15:55:35.572Z,21.37
2018-10-21T15:58:03.724Z,27.50
2018-10-21T16:00:31.738Z,23.63
2018-10-21T16:02:59.842Z,23.80
2018-10-21T16:05:27.931Z,25.07
2018-10-21T16:07:56.025Z,29.97
2018-10-21T16:10:24.085Z,25.10
2018-10-21T16:12:52.150Z,22.90
2018-10-21T16:15:20.219Z,24.23
2018-10-21T16:17:48.307Z,21.00
2018-10-21T16:20:16.497Z,31.43
2018-10-21T16:22:45.247Z,28.80
2018-10-21T16:25:14.568Z,25.30
2018-10-21T16:27:42.894Z,26.43
2018-10-21T16:30:13.143Z,21.27
2018-10-21T16:32:41.975Z,22.13
2018-10-21T16:35:10.643Z,35.37
2018-10-21T16:37:39.412Z,33.60
2018-10-21T16:40:09.538Z,31.93
2018-10-21T16:42:37.913Z,40.15
2018-10-21T16:45:06.472Z,30.20
2018-10-21T16:47:34.920Z,27.23
2018-10-21T16:50:02.982Z,34.87
2018-10-21T16:52:31.124Z,30.53
2018-10-21T16:54:59.248Z,30.70
2018-10-21T16:57:27.364Z,26.20
2018-10-21T16:59:55.564Z,26.27
2018-10-21T17:02:23.499Z,28.03
2018-10-21T17:04:51.566Z,33.73
2018-10-21T17:07:19.728Z,26.00
2018-10-21T17:09:48.176Z,25.23
2018-10-21T17:12:15.839Z,24.33
2018-10-21T17:14:43.987Z,25.77
2018-10-21T17:17:12.783Z,21.83
2018-10-21T17:19:40.744Z,24.83
2018-10-21T17:22:08.847Z,24.03
2018-10-21T17:24:36.915Z,26.93
2018-10-21T17:27:05.288Z,24.83
2018-10-21T17:29:33.379Z,25.33
2018-10-21T17:32:01.481Z,29.83
2018-10-21T17:34:29.567Z,28.10
2018-10-21T17:36:57.708Z,26.63
2018-10-21T17:39:25.742Z,27.03
2018-10-21T17:41:53.919Z,26.87
2018-10-21T17:44:22.016Z,25.90
2018-10-21T17:46:50.071Z,26.50
2018-10-21T17:49:18.776Z,28.30
2018-10-21T17:51:46.864Z,22.27
2018-10-21T17:54:14.986Z,29.50
2018-10-21T17:56:48.347Z,27.53
2018-10-21T17:59:16.427Z,27.93
2018-10-21T18:01:44.511Z,25.93
2018-10-21T18:04:12.782Z,31.47
2018-10-21T18:06:40.889Z,35.68
2018-10-21T18:09:10.483Z,26.23
2018-10-21T18:11:38.548Z,23.40
2018-10-21T18:14:06.976Z,26.23
2018-10-21T18:16:35.187Z,22.83
2018-10-21T18:19:03.410Z,27.20
2018-10-21T18:21:31.438Z,25.27
2018-10-21T18:23:59.559Z,26.73
2018-10-21T18:26:27.635Z,29.47
2018-10-21T18:28:55.795Z,28.97
2018-10-21T18:31:23.862Z,26.40
2018-10-21T18:33:51.953Z,27.87
2018-10-21T18:36:20.043Z,26.53
2018-10-21T18:38:48.131Z,30.80
2018-10-21T18:41:16.721Z,27.90
2018-10-21T18:43:44.624Z,31.20
2018-10-21T18:46:12.816Z,29.27
2018-10-21T18:48:40.874Z,28.20
2018-10-21T18:51:08.946Z,28.20
2018-10-21T18:53:37.033Z,32.13
2018-10-21T18:56:05.342Z,32.70
2018-10-21T18:58:33.474Z,31.07
2018-10-21T19:01:01.561Z,29.93
2018-10-21T19:03:29.634Z,30.00
2018-10-21T19:05:57.718Z,33.63
2018-10-21T19:08:25.790Z,30.13
2018-10-21T19:10:53.911Z,25.47
2018-10-21T19:13:22.361Z,28.43
2018-10-21T19:15:50.226Z,33.00
2018-10-21T19:18:18.298Z,25.53
2018-10-21T19:20:46.426Z,27.83
2018-10-21T19:23:14.553Z,30.30
2018-10-21T19:25:42.650Z,28.27
2018-10-21T19:28:10.835Z,27.60
2018-10-21T19:30:38.867Z,27.47
2018-10-21T19:33:06.950Z,27.30
2018-10-21T19:35:35.058Z,33.37
2018-10-21T19:38:03.164Z,32.07
2018-10-21T19:40:31.250Z,26.60
2018-10-21T19:42:59.453Z,30.87
2018-10-21T19:45:27.499Z,32.47
2018-10-21T19:47:55.579Z,26.90
2018-10-21T19:50:23.841Z,31.10
2018-10-21T19:52:51.924Z,31.80
2018-10-21T19:55:20.003Z,30.80
2018-10-21T19:57:48.103Z,27.57
2018-10-21T20:00:16.992Z,31.57
2018-10-21T20:02:45.427Z,31.63
2018-10-21T20:05:13.606Z,33.10
2018-10-21T20:07:41.770Z,31.83
2018-10-21T20:10:13.251Z,31.00
2018-10-21T20:12:41.372Z,28.53
2018-10-21T20:15:10.500Z,36.33
2018-10-21T20:17:38.983Z,29.07
2018-10-21T20:20:07.567Z,26.40
2018-10-21T20:22:35.726Z,31.03
2018-10-21T20:25:04.111Z,29.57
2018-10-21T20:27:32.167Z,29.63
2018-10-21T20:30:00.262Z,27.53
2018-10-21T20:32:28.336Z,24.03
2018-10-21T20:34:56.446Z,26.87
2018-10-21T20:37:24.905Z,30.73
2018-10-21T20:39:52.994Z,28.70
2018-10-21T20:42:21.175Z,29.10
2018-10-21T20:44:49.279Z,34.47
2018-10-21T20:47:17.483Z,30.40
2018-10-21T20:49:45.596Z,29.23
2018-10-21T20:52:13.684Z,25.80
2018-10-21T20:54:46.307Z,29.57
2018-10-21T20:57:14.707Z,31.70
2018-10-21T20:59:43.887Z,30.60
2018-10-21T21:02:13.089Z,30.57
2018-10-21T21:04:41.226Z,30.27
2018-10-21T21:07:09.867Z,32.20
2018-10-21T21:09:38.852Z,26.00
2018-10-21T21:12:06.973Z,28.20
2018-10-21T21:14:35.081Z,31.83
2018-10-21T21:17:03.750Z,32.47
2018-10-21T21:19:31.971Z,36.87
2018-10-21T21:22:00.097Z,29.67
2018-10-21T21:24:28.483Z,30.40
2018-10-21T21:26:56.554Z,29.97
2018-10-21T21:29:24.655Z,30.83
2018-10-21T21:31:52.739Z,31.03
2018-10-21T21:34:20.813Z,29.93
2018-10-21T21:36:48.900Z,37.70
2018-10-21T21:39:16.983Z,28.30
2018-10-21T21:41:46.108Z,29.60
2018-10-21T21:44:14.187Z,31.77
2018-10-21T21:46:42.667Z,30.73
2018-10-21T21:49:12.795Z,33.47
2018-10-21T21:51:40.898Z,35.37
2018-10-21T21:54:11.602Z,32.27
2018-10-21T21:56:40.000Z,34.73
2018-10-21T21:59:08.458Z,32.37
2018-10-21T22:01:36.739Z,35.13
2018-10-21T22:04:05.173Z,30.73
2018-10-21T22:06:33.211Z,38.90
2018-10-21T22:09:01.319Z,32.60
2018-10-21T22:11:29.413Z,34.97
2018-10-21T22:13:57.551Z,32.83
2018-10-21T22:16:25.626Z,35.77
2018-10-21T22:18:53.777Z,31.80
2018-10-21T22:21:21.875Z,31.60
2018-10-21T22:23:49.942Z,31.53
2018-10-21T22:26:18.027Z,32.97
2018-10-21T22:28:46.140Z,30.90
2018-10-21T22:31:14.214Z,31.40
2018-10-21T22:33:42.531Z,33.07
2018-10-21T22:36:10.678Z,34.67
2018-10-21T22:38:38.740Z,31.20
2018-10-21T22:41:06.855Z,36.23
2018-10-21T22:43:34.924Z,34.13
2018-10-21T22:46:03.090Z,38.60
2018-10-21T22:48:31.098Z,31.90
2018-10-21T22:50:59.175Z,31.17
2018-10-21T22:53:27.299Z,30.30
2018-10-21T22:55:55.373Z,36.00
2018-10-21T22:58:23.447Z,30.50
2018-10-21T23:00:51.539Z,31.93
2018-10-21T23:03:19.607Z,30.63
2018-10-21T23:05:47.679Z,31.37
2018-10-21T23:08:15.760Z,31.97
2018-10-21T23:10:43.967Z,30.17
2018-10-21T23:13:12.122Z,33.37
2018-10-21T23:15:40.209Z,33.53
2018-10-21T23:18:08.322Z,31.83
2018-10-21T23:20:36.371Z,33.43
2018-10-21T23:23:04.457Z,32.63
2018-10-21T23:25:32.526Z,32.00
2018-10-21T23:28:00.680Z,31.27
2018-10-21T23:30:28.722Z,34.77
2018-10-21T23:32:56.813Z,31.70
2018-10-21T23:35:24.898Z,31.47
2018-10-21T23:37:52.970Z,30.23
2018-10-21T23:40:21.139Z,30.10
2018-10-21T23:42:49.196Z,31.83
2018-10-21T23:45:17.277Z,30.93
2018-10-21T23:47:45.358Z,29.20
2018-10-21T23:50:13.431Z,31.43
2018-10-21T23:52:41.502Z,35.40
2018-10-21T23:55:09.603Z,28.97
2018-10-21T23:57:37.646Z,30.00
